Pagina principale
METAR-TAF:

METAR-TAF

Aeroporti :

Duke Field, Florida, Stati Uniti

latitudine: 30-39N, longitudine: 086-31W, altezza: 59 m

Osservazione

Il bollettino è stato emesso 22 minuti fa, alle 14:56 UTC
Vento 16 kt da nord/nord-est con raffiche fino a 23 kt
Temperature 14°C
Umidità 72%
Pressione 1021 hPa
Visibilità: 16.1 km
Cielo coperto ad un'altezza di 2200 ft

METAR: KEGI 181456Z AUTO 02016G23KT 10SM OVC022 14/09 A3014 RMK AO2 SLP207 T01400092 52034 $

Ora: 09:18 (15:18 UTC)


TAF: mancante

Osservazioni e previsioni meteorologiche di più di 4000 aeroporti (messaggi METAR e TAF).

Le stazioni disponibili sono rappresentate dai dischi gialli e rossi sulla carta.

Puntare il mouse per vedere il nome della stazione.

Clicca sopra per visualizzare le osservazioni e previsioni meteorologiche.

Per cambiare la mappa : fare clic sui pulsanti verdi con una croce nera per ingrandire, il pulsante verde con un trattino per diminuire, o sulla freccia verde per le mappe adiacenti.


METAR-TAF: